KRWV

Caldwell Municipal Airport

Caldwell, Texas, USA
METAR KRWV 182215Z AUTO 11014G19KT 10SM SCT036 OVC075 31/22 A2990 RMK AO2
Observed Flight Rules
Jun-18 @ 22:15 UTC (25 minutes ago) Visual Flight Rules
Wind Visibility Clouds
110° at 14 knots
 Gusting to 19 knots
10 miles
  • Scattered at 3,600' AGL
  • Overcast at 7,500' AGL
Temperatures Readings
Current 31°C / 88°F
Dewpoint 22°C / 72°F
Humidity 59%
Altimeter 29.9" Hg
Pressure 1013 hPa
Elevation 119
METAR KRWV 182215Z AUTO 11014G19KT 10SM SCT036 OVC075 31/22 A2990 RMK AO2
Observed Flight Rules
Jun-18 @ 22:15 UTC
(25 minutes ago)
VFR
Wind Visibility
110° at 14 knots
 Gusting to 19 knots
10 miles
Clouds
  • Scattered at 3,600' AGL
  • Overcast at 7,500' AGL
Temperature Dewpoint
31°C / 88°F 22°C / 72°F
Humidity Altimeter Pressure
59% 29.9" Hg 1013 hPa